Inks Lake Village, Texas
Current Conditions -  °F | °C
As of 12:30 PM on Thursday 30 Oct 2014 (Local Time) from KAQO Reporting Station
Overcast Overcast  
Wind Chill: 73°   Ceiling: 1800
Heat Index: 73°   Visibility: 10mi
Dew Point: 64°   Wind: 5mph
Humidity: 73%   Direction: 180°S
Pressure: 30.18"   Gusts: NA
Location:  30.7573°N, 98.4911°W
Report Text: KAQO 301730Z AUTO 18004KT 10SM OVC018 23/18 A3018 RMK AO2
Loading
Personal Weather Stations






























Interactive Weather Map
Tropical Storm Tracking
New forecast layout! Learn more

10-Day Weather Forecast

Advertisements
Track Severe Weather on mobile